createdAt,value
2023-05-25T00:01:13.527Z,13.52
2023-05-25T00:03:40.569Z,11.35
2023-05-25T00:06:10.341Z,14.68
2023-05-25T00:08:37.088Z,13.52
2023-05-25T00:11:03.795Z,20.88
2023-05-25T00:13:30.425Z,17.30
2023-05-25T00:15:57.259Z,12.05
2023-05-25T00:18:25.069Z,16.77
2023-05-25T00:20:54.452Z,20.08
2023-05-25T00:23:21.417Z,15.57
2023-05-25T00:25:48.212Z,20.42
2023-05-25T00:28:14.871Z,17.33
2023-05-25T00:30:41.552Z,16.48
2023-05-25T00:33:10.590Z,17.13
2023-05-25T00:35:37.690Z,19.25
2023-05-25T00:38:04.336Z,15.70
2023-05-25T00:40:30.873Z,18.55
2023-05-25T00:42:57.779Z,15.98
2023-05-25T00:45:24.546Z,15.35
2023-05-25T00:47:54.241Z,12.95
2023-05-25T00:50:24.088Z,19.25
2023-05-25T00:52:51.381Z,18.63
2023-05-25T00:55:19.803Z,15.13
2023-05-25T00:57:52.261Z,12.32
2023-05-25T01:00:19.017Z,17.95
2023-05-25T01:02:46.247Z,16.90
2023-05-25T01:05:14.184Z,12.45
2023-05-25T01:07:41.349Z,12.70
2023-05-25T01:10:09.771Z,10.73
2023-05-25T01:12:37.410Z,17.90
2023-05-25T01:15:04.833Z,18.33
2023-05-25T01:17:32.672Z,14.70
2023-05-25T01:20:09.480Z,15.93
2023-05-25T01:22:46.679Z,21.88
2023-05-25T01:25:21.873Z,13.45
2023-05-25T01:27:54.413Z,18.13
2023-05-25T01:30:22.325Z,14.80
2023-05-25T01:32:50.493Z,16.05
2023-05-25T01:35:22.975Z,17.17
2023-05-25T01:37:51.882Z,20.52
2023-05-25T01:40:18.415Z,15.15
2023-05-25T01:42:45.156Z,21.55
2023-05-25T01:45:12.765Z,14.88
2023-05-25T01:47:41.910Z,16.95
2023-05-25T01:50:09.518Z,13.18
2023-05-25T01:52:38.542Z,10.23
2023-05-25T01:55:18.644Z,9.35
2023-05-25T01:57:46.982Z,13.27
2023-05-25T02:00:20.686Z,13.73
2023-05-25T02:02:47.765Z,9.48
2023-05-25T02:05:14.659Z,14.10
2023-05-25T02:07:41.393Z,13.68
2023-05-25T02:10:08.198Z,15.77
2023-05-25T02:12:34.855Z,12.00
2023-05-25T02:15:01.404Z,15.00
2023-05-25T02:17:29.198Z,14.63
2023-05-25T02:19:56.121Z,14.82
2023-05-25T02:22:22.904Z,14.68
2023-05-25T02:24:52.830Z,17.38
2023-05-25T02:27:19.434Z,15.45
2023-05-25T02:29:47.621Z,11.18
2023-05-25T02:32:14.319Z,14.30
2023-05-25T02:34:41.223Z,19.00
2023-05-25T02:37:11.193Z,9.80
2023-05-25T02:39:37.970Z,13.00
2023-05-25T02:42:07.594Z,11.70
2023-05-25T02:44:34.276Z,16.98
2023-05-25T02:47:00.961Z,17.45
2023-05-25T02:49:31.339Z,15.27
2023-05-25T02:52:01.010Z,14.85
2023-05-25T02:54:27.606Z,13.13
2023-05-25T02:56:54.170Z,18.00
2023-05-25T02:59:21.607Z,18.80
2023-05-25T03:01:48.157Z,13.25
2023-05-25T03:04:18.138Z,14.82
2023-05-25T03:06:45.279Z,13.40
2023-05-25T03:09:15.956Z,14.93
2023-05-25T03:11:42.543Z,13.80
2023-05-25T03:14:13.282Z,14.85
2023-05-25T03:16:45.488Z,13.30
2023-05-25T03:19:12.784Z,12.73
2023-05-25T03:21:39.296Z,12.95
2023-05-25T03:24:06.501Z,16.25
2023-05-25T03:26:34.025Z,17.27
2023-05-25T03:29:02.220Z,16.10
2023-05-25T03:31:31.795Z,19.60
2023-05-25T03:33:58.811Z,17.02
2023-05-25T03:36:28.261Z,12.70
2023-05-25T03:38:55.049Z,14.55
2023-05-25T03:41:21.891Z,16.98
2023-05-25T03:43:49.252Z,11.70
2023-05-25T03:46:16.027Z,12.50
2023-05-25T03:48:43.253Z,14.20
2023-05-25T03:51:12.708Z,13.77
2023-05-25T03:53:39.266Z,11.27
2023-05-25T03:56:07.708Z,16.90
2023-05-25T03:58:36.826Z,22.52
2023-05-25T04:01:05.920Z,17.15
2023-05-25T04:03:33.178Z,16.42
2023-05-25T04:06:00.782Z,20.75
2023-05-25T04:08:28.711Z,13.27
2023-05-25T04:10:56.097Z,15.57
2023-05-25T04:13:22.858Z,12.63
2023-05-25T04:15:49.886Z,17.55
2023-05-25T04:18:20.579Z,17.88
2023-05-25T04:20:48.058Z,14.77
2023-05-25T04:23:15.965Z,22.98
2023-05-25T04:25:45.390Z,22.45
2023-05-25T04:28:12.340Z,24.60
2023-05-25T04:30:59.902Z,22.33
2023-05-25T04:33:49.926Z,23.73
2023-05-25T04:36:22.944Z,31.33
2023-05-25T04:38:52.212Z,22.35
2023-05-25T04:41:19.136Z,24.80
2023-05-25T04:44:05.969Z,25.98
2023-05-25T04:46:39.178Z,23.40
2023-05-25T04:49:08.648Z,22.17
2023-05-25T04:51:36.940Z,22.10
2023-05-25T04:54:06.744Z,23.55
2023-05-25T04:56:33.465Z,27.98
2023-05-25T04:59:00.078Z,26.88
2023-05-25T05:01:26.863Z,28.08
2023-05-25T05:03:58.434Z,27.27
2023-05-25T05:06:25.751Z,24.98
2023-05-25T05:08:56.035Z,27.55
2023-05-25T05:11:23.604Z,22.35
2023-05-25T05:13:51.049Z,26.48
2023-05-25T05:16:17.752Z,24.13
2023-05-25T05:18:44.465Z,28.65
2023-05-25T05:21:11.509Z,25.45
2023-05-25T05:23:38.849Z,27.05
2023-05-25T05:26:07.305Z,25.50
2023-05-25T05:28:34.048Z,28.98
2023-05-25T05:31:00.829Z,25.33
2023-05-25T05:33:27.580Z,21.83
2023-05-25T05:35:54.673Z,25.45
2023-05-25T05:38:22.341Z,24.38
2023-05-25T05:40:49.074Z,24.30
2023-05-25T05:43:21.849Z,23.45
2023-05-25T05:45:48.505Z,24.75
2023-05-25T05:48:15.255Z,24.65
2023-05-25T05:50:42.581Z,27.33
2023-05-25T05:53:10.988Z,20.58
2023-05-25T05:55:37.673Z,24.67
2023-05-25T05:58:04.377Z,24.52
2023-05-25T06:00:31.855Z,23.30
2023-05-25T06:02:58.623Z,21.88
2023-05-25T06:05:27.048Z,25.02
2023-05-25T06:07:55.397Z,24.05
2023-05-25T06:10:22.413Z,22.35
2023-05-25T06:12:49.511Z,24.10
2023-05-25T06:15:16.157Z,19.58
2023-05-25T06:17:44.254Z,20.65
2023-05-25T06:20:11.397Z,24.38
2023-05-25T06:22:38.028Z,21.88
2023-05-25T06:25:04.748Z,23.40
2023-05-25T06:27:31.249Z,23.20
2023-05-25T06:29:57.802Z,21.40
2023-05-25T06:32:24.404Z,20.65
2023-05-25T06:34:51.054Z,19.52
2023-05-25T06:37:18.945Z,17.92
2023-05-25T06:39:46.209Z,24.58
2023-05-25T06:42:12.819Z,21.85
2023-05-25T06:44:49.967Z,21.92
2023-05-25T06:47:17.684Z,18.50
2023-05-25T06:49:44.319Z,16.55
2023-05-25T06:52:11.054Z,11.88
2023-05-25T06:54:37.700Z,14.75
2023-05-25T06:57:04.186Z,12.30
2023-05-25T06:59:31.009Z,14.82
2023-05-25T07:02:00.053Z,16.83
2023-05-25T07:04:27.233Z,16.15
2023-05-25T07:06:53.994Z,18.30
2023-05-25T07:09:21.790Z,15.02
2023-05-25T07:11:48.516Z,12.13
2023-05-25T07:14:15.146Z,16.90
2023-05-25T07:16:41.855Z,14.77
2023-05-25T07:19:08.423Z,18.80
2023-05-25T07:21:34.959Z,16.45
2023-05-25T07:24:01.623Z,12.90
2023-05-25T07:26:28.280Z,14.10
2023-05-25T07:28:54.916Z,10.90
2023-05-25T07:31:22.617Z,13.20
2023-05-25T07:33:49.580Z,15.18
2023-05-25T07:36:16.770Z,16.95
2023-05-25T07:38:43.449Z,14.15
2023-05-25T07:41:09.927Z,14.43
2023-05-25T07:43:37.486Z,11.57
2023-05-25T07:46:04.143Z,11.40
2023-05-25T07:48:30.649Z,15.63
2023-05-25T07:50:57.422Z,15.32
2023-05-25T07:53:24.148Z,9.07
2023-05-25T07:55:50.845Z,13.13
2023-05-25T07:58:17.910Z,10.70
2023-05-25T08:00:44.574Z,12.15
2023-05-25T08:03:11.318Z,15.45
2023-05-25T08:05:38.120Z,15.00
2023-05-25T08:08:04.760Z,14.85
2023-05-25T08:10:32.439Z,15.05
2023-05-25T08:12:59.153Z,10.73
2023-05-25T08:15:26.544Z,16.52
2023-05-25T08:17:53.261Z,12.15
2023-05-25T08:20:20.173Z,10.68
2023-05-25T08:22:46.777Z,14.20
2023-05-25T08:25:13.602Z,15.55
2023-05-25T08:27:40.090Z,12.18
2023-05-25T08:30:07.082Z,15.40
2023-05-25T08:32:33.999Z,15.93
2023-05-25T08:35:01.959Z,13.98
2023-05-25T08:37:29.520Z,12.20
2023-05-25T08:40:00.480Z,12.60
2023-05-25T08:42:27.287Z,13.77
2023-05-25T08:44:53.882Z,14.45
2023-05-25T08:47:22.653Z,14.52
2023-05-25T08:49:50.189Z,19.38
2023-05-25T08:52:21.301Z,12.75
2023-05-25T08:54:48.867Z,15.82
2023-05-25T08:57:20.228Z,13.80
2023-05-25T08:59:50.451Z,14.82
2023-05-25T09:02:23.116Z,13.20
2023-05-25T09:04:49.716Z,17.08
2023-05-25T09:07:16.445Z,14.63
2023-05-25T09:09:43.640Z,14.13
2023-05-25T09:12:13.482Z,18.00
2023-05-25T09:14:45.825Z,13.43
2023-05-25T09:17:14.042Z,15.15
2023-05-25T09:19:40.736Z,13.20
2023-05-25T09:22:15.781Z,15.05
2023-05-25T09:24:44.556Z,15.27
2023-05-25T09:27:16.467Z,10.43
2023-05-25T09:29:43.403Z,12.20
2023-05-25T09:32:09.996Z,11.98
2023-05-25T09:34:36.830Z,13.93
2023-05-25T09:37:04.012Z,11.23
2023-05-25T09:39:30.915Z,10.65
2023-05-25T09:41:57.894Z,11.75
2023-05-25T09:44:24.467Z,13.18
2023-05-25T09:46:51.091Z,12.25
2023-05-25T09:49:17.877Z,9.77
2023-05-25T09:51:44.404Z,15.00
2023-05-25T09:54:11.443Z,14.10
2023-05-25T09:56:38.074Z,17.63
2023-05-25T09:59:04.526Z,15.55
2023-05-25T10:01:32.338Z,16.90
2023-05-25T10:04:04.677Z,12.20
2023-05-25T10:06:33.239Z,15.93
2023-05-25T10:09:00.457Z,15.38
2023-05-25T10:11:27.686Z,9.95
2023-05-25T10:13:55.811Z,11.13
2023-05-25T10:16:28.004Z,8.55
2023-05-25T10:19:01.867Z,10.85
2023-05-25T10:21:31.147Z,13.68
2023-05-25T10:24:02.709Z,11.88
2023-05-25T10:26:31.908Z,10.27
2023-05-25T10:29:01.488Z,15.13
2023-05-25T10:31:29.920Z,12.65
2023-05-25T10:33:57.270Z,12.23
2023-05-25T10:36:25.367Z,11.18
2023-05-25T10:38:52.117Z,11.07
2023-05-25T10:41:20.354Z,10.20
2023-05-25T10:43:47.260Z,12.15
2023-05-25T10:46:15.122Z,11.35
2023-05-25T10:48:48.905Z,11.00
2023-05-25T10:51:15.767Z,11.07
2023-05-25T10:53:47.660Z,11.00
2023-05-25T10:56:14.740Z,12.20
2023-05-25T10:58:46.467Z,9.48
2023-05-25T11:01:14.084Z,9.50
2023-05-25T11:03:46.697Z,14.63
2023-05-25T11:06:17.720Z,12.13
2023-05-25T11:08:50.974Z,15.15
2023-05-25T11:11:17.926Z,12.73
2023-05-25T11:13:45.261Z,10.18
2023-05-25T11:16:22.166Z,11.15
2023-05-25T11:18:48.801Z,13.38
2023-05-25T11:21:16.680Z,9.63
2023-05-25T11:23:56.241Z,11.30
2023-05-25T11:26:23.554Z,11.38
2023-05-25T11:28:53.605Z,12.43
2023-05-25T11:31:23.352Z,11.00
2023-05-25T11:33:51.790Z,13.07
2023-05-25T11:36:20.507Z,10.65
2023-05-25T11:39:02.521Z,11.05
2023-05-25T11:41:33.268Z,11.27
2023-05-25T11:44:04.190Z,14.82
2023-05-25T11:46:33.250Z,8.43
2023-05-25T11:49:00.024Z,10.25
2023-05-25T11:51:30.532Z,9.93
2023-05-25T11:53:57.369Z,9.98
2023-05-25T11:56:34.944Z,9.90
2023-05-25T11:59:02.003Z,11.93
2023-05-25T12:01:31.825Z,14.70
2023-05-25T12:03:58.891Z,8.65
2023-05-25T12:06:26.556Z,8.27
2023-05-25T12:08:53.769Z,9.65
2023-05-25T12:11:29.404Z,8.73
2023-05-25T12:13:56.378Z,12.27
2023-05-25T12:16:23.831Z,9.32
2023-05-25T12:18:51.285Z,10.13
2023-05-25T12:21:18.268Z,8.45
2023-05-25T12:23:48.911Z,16.60
2023-05-25T12:26:16.363Z,12.95
2023-05-25T12:29:04.740Z,8.95
2023-05-25T12:31:32.965Z,8.02
2023-05-25T12:34:18.439Z,14.50
2023-05-25T12:36:55.095Z,13.77
2023-05-25T12:39:30.567Z,9.45
2023-05-25T12:41:57.192Z,8.65
2023-05-25T12:44:25.150Z,9.90
2023-05-25T12:46:52.637Z,11.20
2023-05-25T12:49:45.505Z,13.15
2023-05-25T12:52:30.927Z,10.20
2023-05-25T12:54:57.603Z,9.40
2023-05-25T12:57:33.694Z,9.38
2023-05-25T13:00:00.515Z,13.25
2023-05-25T13:02:27.091Z,11.55
2023-05-25T13:04:53.790Z,11.18
2023-05-25T13:07:22.734Z,10.80
2023-05-25T13:09:49.238Z,16.08
2023-05-25T13:12:15.895Z,11.00
2023-05-25T13:14:42.523Z,9.30
2023-05-25T13:17:09.115Z,12.07
2023-05-25T13:19:36.121Z,12.73
2023-05-25T13:22:02.956Z,9.70
2023-05-25T13:24:29.497Z,12.50
2023-05-25T13:26:56.247Z,11.18
2023-05-25T13:29:23.973Z,14.55
2023-05-25T13:31:50.869Z,10.52
2023-05-25T13:34:17.721Z,11.73
2023-05-25T13:36:44.398Z,12.40
2023-05-25T13:39:13.474Z,14.75
2023-05-25T13:41:40.676Z,12.07
2023-05-25T13:44:07.279Z,11.88
2023-05-25T13:46:35.822Z,12.57
2023-05-25T13:49:02.949Z,13.07
2023-05-25T13:51:29.723Z,11.07
2023-05-25T13:53:56.234Z,11.05
2023-05-25T13:56:23.287Z,15.63
2023-05-25T13:58:49.898Z,16.27
2023-05-25T14:01:16.727Z,14.80
2023-05-25T14:03:43.724Z,14.20
2023-05-25T14:06:10.912Z,9.05
2023-05-25T14:08:40.246Z,11.88
2023-05-25T14:11:07.472Z,11.55
2023-05-25T14:13:36.141Z,10.68
2023-05-25T14:16:03.722Z,17.38
2023-05-25T14:18:30.416Z,13.23
2023-05-25T14:20:57.006Z,10.82
2023-05-25T14:23:24.014Z,12.45
2023-05-25T14:25:50.797Z,11.80
2023-05-25T14:28:17.334Z,9.80
2023-05-25T14:30:43.942Z,13.23
2023-05-25T14:33:15.266Z,9.73
2023-05-25T14:35:45.024Z,16.42
2023-05-25T14:38:12.075Z,14.57
2023-05-25T14:40:38.617Z,14.55
2023-05-25T14:43:05.436Z,12.02
2023-05-25T14:45:32.099Z,11.38
2023-05-25T14:48:11.958Z,13.05
2023-05-25T14:50:44.125Z,14.82
2023-05-25T14:53:12.845Z,14.80
2023-05-25T14:55:40.846Z,13.02
2023-05-25T14:58:07.927Z,13.25
2023-05-25T15:00:34.477Z,11.27
2023-05-25T15:03:01.267Z,12.90
2023-05-25T15:05:28.060Z,12.13
2023-05-25T15:07:54.644Z,13.98
2023-05-25T15:10:21.163Z,13.52
2023-05-25T15:12:47.804Z,10.98
2023-05-25T15:15:15.343Z,11.27
2023-05-25T15:17:41.976Z,10.68
2023-05-25T15:20:08.731Z,11.43
2023-05-25T15:22:35.766Z,13.82
2023-05-25T15:25:02.927Z,10.55
2023-05-25T15:27:29.574Z,10.10
2023-05-25T15:29:56.139Z,11.27
2023-05-25T15:32:22.698Z,8.40
2023-05-25T15:34:49.224Z,17.55
2023-05-25T15:37:15.762Z,11.18
2023-05-25T15:39:42.367Z,9.30
2023-05-25T15:42:08.876Z,11.35
2023-05-25T15:44:35.396Z,12.77
2023-05-25T15:47:02.057Z,10.75
2023-05-25T15:49:28.570Z,11.52
2023-05-25T15:51:55.034Z,11.27
2023-05-25T15:54:21.699Z,11.55
2023-05-25T15:56:48.132Z,12.02
2023-05-25T15:59:15.175Z,10.05
2023-05-25T16:01:41.981Z,10.40
2023-05-25T16:04:08.954Z,12.18
2023-05-25T16:06:36.285Z,14.52
2023-05-25T16:09:06.046Z,9.93
2023-05-25T16:11:34.123Z,11.07
2023-05-25T16:14:00.781Z,13.23
2023-05-25T16:16:27.412Z,13.23
2023-05-25T16:18:54.161Z,16.45
2023-05-25T16:21:21.177Z,11.50
2023-05-25T16:23:47.679Z,12.73
2023-05-25T16:26:14.406Z,11.68
2023-05-25T16:28:41.120Z,13.30
2023-05-25T16:31:07.665Z,18.17
2023-05-25T16:33:34.365Z,16.55
2023-05-25T16:36:01.063Z,9.05
2023-05-25T16:38:27.689Z,12.05
2023-05-25T16:40:54.347Z,12.75
2023-05-25T16:43:23.194Z,10.90
2023-05-25T16:45:49.769Z,12.63
2023-05-25T16:48:16.500Z,11.80
2023-05-25T16:50:43.083Z,13.82
2023-05-25T16:53:09.870Z,14.65
2023-05-25T16:55:36.377Z,16.35
2023-05-25T16:58:03.318Z,17.80
2023-05-25T17:00:29.776Z,11.77
2023-05-25T17:02:56.523Z,13.45
2023-05-25T17:05:23.090Z,9.80
2023-05-25T17:07:49.623Z,13.75
2023-05-25T17:10:16.370Z,17.10
2023-05-25T17:12:42.943Z,10.40
2023-05-25T17:15:11.250Z,9.80
2023-05-25T17:17:37.909Z,12.50
2023-05-25T17:20:05.250Z,10.70
2023-05-25T17:22:31.992Z,15.00
2023-05-25T17:24:58.629Z,13.98
2023-05-25T17:27:25.358Z,12.90
2023-05-25T17:29:52.033Z,13.80
2023-05-25T17:32:18.747Z,14.52
2023-05-25T17:34:45.606Z,11.20
2023-05-25T17:37:12.580Z,13.18
2023-05-25T17:39:39.411Z,13.57
2023-05-25T17:42:06.634Z,13.73
2023-05-25T17:44:33.282Z,12.55
2023-05-25T17:47:00.249Z,15.68
2023-05-25T17:49:26.724Z,15.18
2023-05-25T17:51:53.421Z,14.23
2023-05-25T17:54:25.842Z,15.32
2023-05-25T17:56:52.830Z,12.38
2023-05-25T17:59:19.533Z,13.40
2023-05-25T18:01:46.139Z,11.90
2023-05-25T18:04:12.978Z,10.52
2023-05-25T18:06:39.647Z,11.98
2023-05-25T18:09:06.540Z,11.32
2023-05-25T18:11:33.621Z,13.88
2023-05-25T18:14:00.538Z,10.98
2023-05-25T18:16:27.322Z,13.60
2023-05-25T18:18:53.939Z,14.52
2023-05-25T18:21:20.404Z,10.15
2023-05-25T18:23:47.486Z,9.15
2023-05-25T18:26:14.302Z,15.40
2023-05-25T18:28:40.938Z,12.40
2023-05-25T18:31:08.740Z,11.13
2023-05-25T18:33:35.550Z,9.27
2023-05-25T18:36:02.244Z,15.65
2023-05-25T18:38:28.829Z,11.80
2023-05-25T18:40:55.978Z,14.65
2023-05-25T18:43:22.627Z,15.95
2023-05-25T18:45:52.240Z,11.40
2023-05-25T18:48:19.152Z,16.90
2023-05-25T18:50:46.063Z,16.20
2023-05-25T18:53:12.654Z,11.88
2023-05-25T18:55:39.483Z,12.25
2023-05-25T18:58:06.558Z,17.58
2023-05-25T19:00:33.500Z,11.75
2023-05-25T19:03:00.259Z,9.90
2023-05-25T19:05:27.150Z,16.60
2023-05-25T19:07:59.255Z,15.90
2023-05-25T19:10:26.616Z,15.43
2023-05-25T19:12:53.457Z,18.55
2023-05-25T19:15:20.041Z,13.88
2023-05-25T19:17:49.582Z,14.32
2023-05-25T19:20:16.402Z,14.80
2023-05-25T19:22:43.415Z,15.05
2023-05-25T19:25:10.121Z,18.73
2023-05-25T19:27:36.685Z,19.08
2023-05-25T19:30:03.922Z,19.73
2023-05-25T19:32:30.556Z,18.92
2023-05-25T19:34:57.477Z,17.00
2023-05-25T19:37:23.964Z,16.33
2023-05-25T19:39:50.454Z,18.23
2023-05-25T19:42:17.057Z,15.77
2023-05-25T19:44:45.273Z,14.23
2023-05-25T19:47:11.815Z,16.98
2023-05-25T19:49:38.542Z,14.68
2023-05-25T19:52:05.331Z,17.75
2023-05-25T19:54:32.012Z,24.30
2023-05-25T19:56:58.614Z,16.92
2023-05-25T19:59:28.910Z,17.70
2023-05-25T20:01:56.055Z,16.23
2023-05-25T20:04:22.881Z,19.00
2023-05-25T20:06:49.552Z,18.27
2023-05-25T20:09:16.598Z,20.52
2023-05-25T20:11:43.285Z,38.72
2023-05-25T20:14:12.598Z,67.03
2023-05-25T20:16:39.483Z,55.97
2023-05-25T20:19:07.791Z,28.02
2023-05-25T20:21:35.607Z,21.02
2023-05-25T20:24:03.523Z,25.45
2023-05-25T20:26:30.279Z,26.02
2023-05-25T20:28:57.294Z,40.72
2023-05-25T20:31:24.837Z,16.23
2023-05-25T20:33:51.613Z,18.10
2023-05-25T20:36:18.221Z,15.00
2023-05-25T20:38:47.610Z,16.95
2023-05-25T20:41:14.214Z,19.35
2023-05-25T20:43:40.794Z,13.68
2023-05-25T20:46:09.749Z,18.00
2023-05-25T20:48:36.506Z,14.88
2023-05-25T20:51:03.088Z,14.48
2023-05-25T20:53:29.928Z,14.40
2023-05-25T20:56:01.483Z,13.60
2023-05-25T20:58:28.064Z,14.95
2023-05-25T21:00:54.656Z,12.85
2023-05-25T21:03:21.229Z,14.18
2023-05-25T21:05:48.032Z,16.58
2023-05-25T21:08:14.785Z,20.60
2023-05-25T21:10:41.533Z,14.90
2023-05-25T21:13:08.143Z,17.02
2023-05-25T21:15:34.693Z,15.65
2023-05-25T21:18:03.340Z,10.65
2023-05-25T21:20:30.210Z,17.70
2023-05-25T21:22:56.899Z,15.18
2023-05-25T21:25:23.532Z,19.65
2023-05-25T21:27:50.402Z,14.98
2023-05-25T21:30:17.048Z,13.80
2023-05-25T21:32:43.740Z,16.90
2023-05-25T21:35:10.532Z,18.88
2023-05-25T21:37:37.110Z,14.98
2023-05-25T21:40:03.825Z,13.60
2023-05-25T21:42:30.525Z,19.35
2023-05-25T21:44:57.130Z,13.90
2023-05-25T21:47:23.741Z,13.65
2023-05-25T21:49:50.511Z,12.70
2023-05-25T21:52:19.696Z,19.25
2023-05-25T21:54:46.270Z,16.77
2023-05-25T21:57:12.830Z,13.15
2023-05-25T21:59:39.391Z,19.45
2023-05-25T22:02:06.321Z,16.20
2023-05-25T22:04:32.983Z,14.80
2023-05-25T22:06:59.668Z,14.85
2023-05-25T22:09:29.132Z,18.48
2023-05-25T22:11:55.959Z,18.02
2023-05-25T22:14:22.660Z,15.93
2023-05-25T22:16:49.702Z,17.15
2023-05-25T22:19:16.351Z,21.98
2023-05-25T22:21:42.920Z,15.38
2023-05-25T22:24:09.489Z,18.90
2023-05-25T22:26:36.213Z,13.77
2023-05-25T22:29:02.792Z,18.38
2023-05-25T22:31:29.546Z,18.55
2023-05-25T22:33:56.270Z,16.58
2023-05-25T22:36:22.762Z,19.40
2023-05-25T22:38:49.310Z,13.70
2023-05-25T22:41:15.924Z,18.13
2023-05-25T22:43:42.600Z,17.17
2023-05-25T22:46:12.058Z,25.92
2023-05-25T22:48:38.661Z,19.75
2023-05-25T22:51:05.180Z,17.42
2023-05-25T22:53:31.842Z,18.45
2023-05-25T22:55:58.446Z,16.25
2023-05-25T22:58:25.103Z,17.48
2023-05-25T23:00:54.567Z,18.30
2023-05-25T23:03:23.725Z,21.88
2023-05-25T23:05:50.396Z,15.98
2023-05-25T23:08:17.059Z,16.20
2023-05-25T23:10:43.694Z,20.85
2023-05-25T23:13:10.679Z,17.17
2023-05-25T23:15:39.934Z,13.77
2023-05-25T23:18:06.928Z,15.25
2023-05-25T23:20:35.553Z,20.40
2023-05-25T23:23:02.327Z,14.32
2023-05-25T23:25:28.877Z,14.48
2023-05-25T23:27:55.479Z,15.02
2023-05-25T23:30:22.015Z,16.42
2023-05-25T23:32:48.697Z,21.77
2023-05-25T23:35:20.401Z,12.40
2023-05-25T23:37:52.086Z,13.25
2023-05-25T23:40:18.786Z,14.00
2023-05-25T23:42:45.367Z,16.80
2023-05-25T23:45:13.678Z,19.00
2023-05-25T23:47:40.502Z,19.88
2023-05-25T23:50:07.233Z,15.27
2023-05-25T23:52:36.338Z,15.60
2023-05-25T23:55:03.896Z,17.85
2023-05-25T23:57:30.636Z,13.90
2023-05-25T23:59:57.325Z,16.40
